createdAt,value
2018-12-05T00:01:10.462Z,9.93
2018-12-05T00:03:39.219Z,8.37
2018-12-05T00:06:07.760Z,11.93
2018-12-05T00:08:36.138Z,17.07
2018-12-05T00:11:04.940Z,9.57
2018-12-05T00:13:33.352Z,13.77
2018-12-05T00:16:02.715Z,12.23
2018-12-05T00:18:31.151Z,12.00
2018-12-05T00:20:59.546Z,11.87
2018-12-05T00:23:27.970Z,11.07
2018-12-05T00:25:56.426Z,12.23
2018-12-05T00:28:24.828Z,14.63
2018-12-05T00:30:53.231Z,11.57
2018-12-05T00:33:21.626Z,13.07
2018-12-05T00:35:50.079Z,11.47
2018-12-05T00:38:18.458Z,9.30
2018-12-05T00:40:46.863Z,12.90
2018-12-05T00:43:15.291Z,10.87
2018-12-05T00:45:43.670Z,12.90
2018-12-05T00:48:12.088Z,12.60
2018-12-05T00:50:40.472Z,12.47
2018-12-05T00:53:08.886Z,11.17
2018-12-05T00:55:37.302Z,14.97
2018-12-05T00:58:05.819Z,11.40
2018-12-05T01:00:34.410Z,13.80
2018-12-05T01:03:02.775Z,8.90
2018-12-05T01:05:31.166Z,18.87
2018-12-05T01:07:59.660Z,11.80
2018-12-05T01:10:28.130Z,12.50
2018-12-05T01:12:56.609Z,12.20
2018-12-05T01:15:25.034Z,8.93
2018-12-05T01:17:53.420Z,13.83
2018-12-05T01:20:21.812Z,13.57
2018-12-05T01:22:50.230Z,10.97
2018-12-05T01:25:18.602Z,14.57
2018-12-05T01:27:47.082Z,20.50
2018-12-05T01:30:15.489Z,11.97
2018-12-05T01:32:43.955Z,13.73
2018-12-05T01:35:12.669Z,12.03
2018-12-05T01:37:41.767Z,14.53
2018-12-05T01:40:10.164Z,7.30
2018-12-05T01:42:38.554Z,7.67
2018-12-05T01:45:08.058Z,9.77
2018-12-05T01:50:11.326Z,10.97
2018-12-05T01:52:39.835Z,7.80
2018-12-05T01:55:08.946Z,11.13
2018-12-05T01:57:37.321Z,9.73
2018-12-05T02:00:06.790Z,15.60
2018-12-05T02:02:35.239Z,12.13
2018-12-05T02:05:04.122Z,15.40
2018-12-05T02:07:32.522Z,13.93
2018-12-05T02:10:00.914Z,12.53
2018-12-05T02:12:29.323Z,10.77
2018-12-05T02:14:57.703Z,11.43
2018-12-05T02:17:26.087Z,8.43
2018-12-05T02:19:58.502Z,11.87
2018-12-05T02:22:26.871Z,9.93
2018-12-05T02:25:01.872Z,12.30
2018-12-05T02:27:30.237Z,10.50
2018-12-05T02:29:58.791Z,12.93
2018-12-05T02:32:27.355Z,11.97
2018-12-05T02:34:55.760Z,12.73
2018-12-05T02:37:24.143Z,15.97
2018-12-05T02:39:53.041Z,13.33
2018-12-05T02:42:21.551Z,12.57
2018-12-05T02:44:49.959Z,13.37
2018-12-05T02:47:18.341Z,14.67
2018-12-05T02:49:46.721Z,8.23
2018-12-05T02:52:15.106Z,12.33
2018-12-05T02:54:43.511Z,10.90
2018-12-05T02:57:12.002Z,11.77
2018-12-05T02:59:40.375Z,13.80
2018-12-05T03:02:08.780Z,10.80
2018-12-05T03:04:37.308Z,12.43
2018-12-05T03:07:05.831Z,11.23
2018-12-05T03:09:34.213Z,12.23
2018-12-05T03:12:02.605Z,9.33
2018-12-05T03:14:31.018Z,11.80
2018-12-05T03:16:59.400Z,12.27
2018-12-05T03:19:27.792Z,15.43
2018-12-05T03:21:56.187Z,9.77
2018-12-05T03:24:24.684Z,10.63
2018-12-05T03:26:53.062Z,13.50
2018-12-05T03:29:21.453Z,14.03
2018-12-05T03:31:49.870Z,13.40
2018-12-05T03:34:18.252Z,12.53
2018-12-05T03:36:46.751Z,11.27
2018-12-05T03:39:15.611Z,8.93
2018-12-05T03:41:43.996Z,16.07
2018-12-05T03:44:12.356Z,11.60
2018-12-05T03:46:40.858Z,10.87
2018-12-05T03:49:09.444Z,13.33
2018-12-05T03:51:37.831Z,11.93
2018-12-05T03:54:06.260Z,18.90
2018-12-05T03:56:34.661Z,13.87
2018-12-05T03:59:03.168Z,10.73
2018-12-05T04:01:31.712Z,14.70
2018-12-05T04:04:00.424Z,15.60
2018-12-05T04:06:28.815Z,11.80
2018-12-05T04:08:57.196Z,12.90
2018-12-05T04:11:25.591Z,14.63
2018-12-05T04:13:53.992Z,15.67
2018-12-05T04:16:22.397Z,15.00
2018-12-05T04:18:50.813Z,16.17
2018-12-05T04:21:19.319Z,17.17
2018-12-05T04:23:47.738Z,17.37
2018-12-05T04:26:16.120Z,19.07
2018-12-05T04:28:44.748Z,14.40
2018-12-05T04:31:13.303Z,18.27
2018-12-05T04:33:41.995Z,17.80
2018-12-05T04:36:10.421Z,13.33
2018-12-05T04:38:38.785Z,15.53
2018-12-05T04:41:07.172Z,17.63
2018-12-05T04:43:35.553Z,20.03
2018-12-05T04:46:03.937Z,17.77
2018-12-05T04:48:32.430Z,23.67
2018-12-05T04:51:00.826Z,17.97
2018-12-05T04:53:29.911Z,17.50
2018-12-05T04:55:58.339Z,20.20
2018-12-05T04:58:26.735Z,12.97
2018-12-05T05:00:55.153Z,15.90
2018-12-05T05:03:23.774Z,19.10
2018-12-05T05:05:52.182Z,16.03
2018-12-05T05:08:20.610Z,20.37
2018-12-05T05:10:49.015Z,18.77
2018-12-05T05:13:17.393Z,21.07
2018-12-05T05:15:45.802Z,13.93
2018-12-05T05:18:14.195Z,19.40
2018-12-05T05:20:42.583Z,16.37
2018-12-05T05:23:10.968Z,18.03
2018-12-05T05:25:39.566Z,13.63
2018-12-05T05:28:08.059Z,14.43
2018-12-05T05:30:36.443Z,19.03
2018-12-05T05:33:04.832Z,22.37
2018-12-05T05:35:33.247Z,20.80
2018-12-05T05:38:01.647Z,16.77
2018-12-05T05:40:30.066Z,16.43
2018-12-05T05:42:58.504Z,18.90
2018-12-05T05:45:26.899Z,14.97
2018-12-05T05:47:55.298Z,16.13
2018-12-05T05:50:23.678Z,14.77
2018-12-05T05:52:52.087Z,17.93
2018-12-05T05:55:20.496Z,22.40
2018-12-05T05:57:48.892Z,13.73
2018-12-05T06:00:17.298Z,24.17
2018-12-05T06:02:45.691Z,20.80
2018-12-05T06:05:14.070Z,20.07
2018-12-05T06:07:42.454Z,20.00
2018-12-05T06:10:10.852Z,15.70
2018-12-05T06:12:39.253Z,17.90
2018-12-05T06:15:08.820Z,24.13
2018-12-05T06:17:37.233Z,15.70
2018-12-05T06:20:05.814Z,24.27
2018-12-05T06:22:34.327Z,22.80
2018-12-05T06:25:02.847Z,22.13
2018-12-05T06:27:31.842Z,22.50
2018-12-05T06:30:00.298Z,21.27
2018-12-05T06:32:28.699Z,22.63
2018-12-05T06:34:57.097Z,26.07
2018-12-05T06:37:25.541Z,19.50
2018-12-05T06:39:54.083Z,22.70
2018-12-05T06:42:22.487Z,23.93
2018-12-05T06:44:50.930Z,17.30
2018-12-05T06:47:19.341Z,26.83
2018-12-05T06:49:47.730Z,21.17
2018-12-05T06:52:17.187Z,21.20
2018-12-05T06:54:45.607Z,24.13
2018-12-05T06:57:14.662Z,24.13
2018-12-05T06:59:43.082Z,19.97
2018-12-05T07:02:11.476Z,25.20
2018-12-05T07:04:39.877Z,21.77
2018-12-05T07:07:08.930Z,21.93
2018-12-05T07:09:37.425Z,16.90
2018-12-05T07:12:05.908Z,21.37
2018-12-05T07:14:34.330Z,19.23
2018-12-05T07:17:03.667Z,22.60
2018-12-05T07:19:32.083Z,23.80
2018-12-05T07:22:00.514Z,23.13
2018-12-05T07:24:29.014Z,23.03
2018-12-05T07:26:57.412Z,21.13
2018-12-05T07:29:25.808Z,25.77
2018-12-05T07:31:54.237Z,20.83
2018-12-05T07:34:22.748Z,20.27
2018-12-05T07:36:51.154Z,18.73
2018-12-05T07:39:19.531Z,18.63
2018-12-05T07:41:47.947Z,20.03
2018-12-05T07:44:16.355Z,21.90
2018-12-05T07:46:44.756Z,21.97
2018-12-05T07:49:13.271Z,17.77
2018-12-05T07:51:41.700Z,19.33
2018-12-05T07:54:10.904Z,19.97
2018-12-05T07:56:39.311Z,18.13
2018-12-05T07:59:07.800Z,25.97
2018-12-05T08:01:36.225Z,27.43
2018-12-05T08:04:04.745Z,17.90
2018-12-05T08:06:33.118Z,18.30
2018-12-05T08:09:01.502Z,19.70
2018-12-05T08:11:29.942Z,17.90
2018-12-05T08:14:00.820Z,17.33
2018-12-05T08:16:29.207Z,17.53
2018-12-05T08:18:57.609Z,17.77
2018-12-05T08:21:26.458Z,14.83
2018-12-05T08:23:54.855Z,19.00
2018-12-05T08:26:23.323Z,19.13
2018-12-05T08:28:51.835Z,16.83
2018-12-05T08:31:25.413Z,17.43
2018-12-05T08:33:53.820Z,15.00
2018-12-05T08:36:22.216Z,13.13
2018-12-05T08:38:50.610Z,13.53
2018-12-05T08:41:24.151Z,17.03
2018-12-05T08:43:53.224Z,18.97
2018-12-05T08:46:21.422Z,17.40
2018-12-05T08:48:49.574Z,16.93
2018-12-05T08:51:17.730Z,14.80
2018-12-05T08:53:45.922Z,13.57
2018-12-05T08:56:14.202Z,13.73
2018-12-05T08:58:42.373Z,14.27
2018-12-05T09:01:11.161Z,13.93
2018-12-05T09:03:40.179Z,17.10
2018-12-05T09:06:08.333Z,13.60
2018-12-05T09:08:36.481Z,14.30
2018-12-05T09:11:04.754Z,14.50
2018-12-05T09:13:32.920Z,14.87
2018-12-05T09:16:01.051Z,15.30
2018-12-05T09:18:29.226Z,16.37
2018-12-05T09:20:57.427Z,13.17
2018-12-05T09:23:25.629Z,10.87
2018-12-05T09:25:55.526Z,16.83
2018-12-05T09:28:24.940Z,13.67
2018-12-05T09:30:54.155Z,13.83
2018-12-05T09:33:24.467Z,10.20
2018-12-05T09:35:53.863Z,14.30
2018-12-05T09:38:22.368Z,13.87
2018-12-05T09:40:52.376Z,12.13
2018-12-05T09:43:20.779Z,16.10
2018-12-05T09:45:49.979Z,13.73
2018-12-05T09:48:19.627Z,13.43
2018-12-05T09:50:48.027Z,13.53
2018-12-05T09:53:16.660Z,15.73
2018-12-05T09:55:45.059Z,11.20
2018-12-05T09:58:13.474Z,12.00
2018-12-05T10:00:41.917Z,10.23
2018-12-05T10:03:10.323Z,12.93
2018-12-05T10:05:39.767Z,11.67
2018-12-05T10:08:08.189Z,11.67
2018-12-05T10:10:37.436Z,10.40
2018-12-05T10:13:07.072Z,11.27
2018-12-05T10:15:35.529Z,11.00
2018-12-05T10:18:04.371Z,10.93
2018-12-05T10:20:33.008Z,9.70
2018-12-05T10:23:02.512Z,15.50
2018-12-05T10:25:31.351Z,12.20
2018-12-05T10:28:00.646Z,10.40
2018-12-05T10:30:29.056Z,11.53
2018-12-05T10:32:57.427Z,9.83
2018-12-05T10:35:25.826Z,11.97
2018-12-05T10:37:54.578Z,9.37
2018-12-05T10:40:23.166Z,9.77
2018-12-05T10:42:51.548Z,11.88
2018-12-05T10:45:19.951Z,13.78
2018-12-05T10:47:48.357Z,11.23
2018-12-05T10:50:16.762Z,11.60
2018-12-05T10:52:45.187Z,13.23
2018-12-05T10:55:13.694Z,15.73
2018-12-05T10:57:42.307Z,12.47
2018-12-05T11:00:15.158Z,10.60
2018-12-05T11:05:16.702Z,10.07
2018-12-05T11:07:50.467Z,11.87
2018-12-05T11:10:24.294Z,11.83
2018-12-05T11:12:58.025Z,9.05
2018-12-05T11:15:31.795Z,10.27
2018-12-05T11:18:05.491Z,10.27
2018-12-05T11:20:39.299Z,11.23
2018-12-05T11:23:12.181Z,9.30
2018-12-05T11:25:40.559Z,9.70
2018-12-05T11:28:09.682Z,11.22
2018-12-05T11:30:38.072Z,9.38
2018-12-05T11:33:06.474Z,11.77
2018-12-05T11:35:36.245Z,8.90
2018-12-05T11:38:04.973Z,11.03
2018-12-05T11:40:33.422Z,10.00
2018-12-05T11:43:01.836Z,11.63
2018-12-05T11:45:30.358Z,7.30
2018-12-05T11:47:58.761Z,8.23
2018-12-05T11:50:27.242Z,11.10
2018-12-05T11:52:55.646Z,9.45
2018-12-05T11:55:24.042Z,10.03
2018-12-05T11:57:52.799Z,12.20
2018-12-05T12:00:22.129Z,10.65
2018-12-05T12:02:50.656Z,9.43
2018-12-05T12:05:19.052Z,11.50
2018-12-05T12:07:47.142Z,9.03
2018-12-05T12:10:16.309Z,8.73
2018-12-05T12:12:50.241Z,8.68
2018-12-05T12:15:18.952Z,6.92
2018-12-05T12:17:47.510Z,8.38
2018-12-05T12:20:15.903Z,7.45
2018-12-05T12:22:44.361Z,9.47
2018-12-05T12:25:12.916Z,11.93
2018-12-05T12:27:41.344Z,9.13
2018-12-05T12:30:15.870Z,8.28
2018-12-05T12:32:40.306Z,11.37
2018-12-05T12:35:09.528Z,10.53
2018-12-05T12:37:37.927Z,9.93
2018-12-05T12:40:06.526Z,8.93
2018-12-05T12:42:34.959Z,10.13
2018-12-05T12:45:03.656Z,10.50
2018-12-05T12:47:32.095Z,9.20
2018-12-05T12:50:00.509Z,10.07
2018-12-05T12:52:28.984Z,11.70
2018-12-05T12:54:57.417Z,6.80
2018-12-05T12:57:25.830Z,13.43
2018-12-05T12:59:58.808Z,9.57
2018-12-05T13:02:27.226Z,10.13
2018-12-05T13:04:55.651Z,11.20
2018-12-05T13:07:24.055Z,9.23
2018-12-05T13:09:52.494Z,12.50
2018-12-05T13:12:29.050Z,7.77
2018-12-05T13:14:57.811Z,8.93
2018-12-05T13:17:26.171Z,9.97
2018-12-05T13:19:54.615Z,7.60
2018-12-05T13:22:23.047Z,7.80
2018-12-05T13:24:51.687Z,8.83
2018-12-05T13:27:20.218Z,7.43
2018-12-05T13:29:48.611Z,10.87
2018-12-05T13:32:17.101Z,8.00
2018-12-05T13:34:52.239Z,13.33
2018-12-05T13:37:20.671Z,10.87
2018-12-05T13:39:49.867Z,11.57
2018-12-05T13:42:18.602Z,8.87
2018-12-05T13:44:47.078Z,17.53
2018-12-05T13:47:15.599Z,13.27
2018-12-05T13:49:44.461Z,15.30
2018-12-05T13:52:12.903Z,8.27
2018-12-05T13:54:41.319Z,12.37
2018-12-05T13:57:09.835Z,9.57
2018-12-05T13:59:38.246Z,10.87
2018-12-05T14:02:07.686Z,11.30
2018-12-05T14:04:43.507Z,10.73
2018-12-05T14:07:12.104Z,13.93
2018-12-05T14:09:40.490Z,41.23
2018-12-05T14:12:13.271Z,9.33
2018-12-05T14:14:41.697Z,26.93
2018-12-05T14:17:10.115Z,14.87
2018-12-05T14:19:38.583Z,12.93
2018-12-05T14:22:07.002Z,8.93
2018-12-05T14:24:35.445Z,10.73
2018-12-05T14:27:03.832Z,12.90
2018-12-05T14:29:32.247Z,17.50
2018-12-05T14:32:00.677Z,24.80
2018-12-05T14:34:29.215Z,9.07
2018-12-05T14:36:57.651Z,8.67
2018-12-05T14:39:26.048Z,8.77
2018-12-05T14:41:54.592Z,11.27
2018-12-05T14:44:23.031Z,13.50
2018-12-05T14:46:51.424Z,7.83
2018-12-05T14:49:19.841Z,11.57
2018-12-05T14:51:48.269Z,6.83
2018-12-05T14:54:16.756Z,11.17
2018-12-05T14:56:45.178Z,10.73
2018-12-05T14:59:13.956Z,6.40
2018-12-05T15:01:42.712Z,9.53
2018-12-05T15:04:11.118Z,8.97
2018-12-05T15:06:39.883Z,10.30
2018-12-05T15:09:09.053Z,8.27
2018-12-05T15:11:37.605Z,9.30
2018-12-05T15:14:06.054Z,8.17
2018-12-05T15:16:35.225Z,8.73
2018-12-05T15:19:03.888Z,8.73
2018-12-05T15:21:32.281Z,6.93
2018-12-05T15:24:01.387Z,8.80
2018-12-05T15:26:30.372Z,9.13
2018-12-05T15:45:21.647Z,10.70
2018-12-05T15:47:49.206Z,9.03
2018-12-05T15:50:18.122Z,10.50
2018-12-05T15:52:46.624Z,7.80
2018-12-05T15:55:15.108Z,8.30
2018-12-05T15:57:43.522Z,14.57
2018-12-05T16:00:12.183Z,11.00
2018-12-05T16:02:40.675Z,18.70
2018-12-05T16:05:09.297Z,8.10
2018-12-05T16:07:37.711Z,6.50
2018-12-05T16:10:07.010Z,10.33
2018-12-05T16:12:35.434Z,9.37
2018-12-05T16:15:04.169Z,6.57
2018-12-05T16:17:32.599Z,7.90
2018-12-05T16:20:02.084Z,6.27
2018-12-05T16:22:30.782Z,9.47
2018-12-05T16:24:59.741Z,7.80
2018-12-05T16:27:28.219Z,17.27
2018-12-05T16:29:56.687Z,8.90
2018-12-05T16:32:25.124Z,10.80
2018-12-05T16:34:53.528Z,8.70
2018-12-05T16:37:21.953Z,6.07
2018-12-05T16:39:50.372Z,9.13
2018-12-05T16:42:18.778Z,7.23
2018-12-05T16:44:47.632Z,6.37
2018-12-05T16:47:16.054Z,8.23
2018-12-05T16:49:44.459Z,8.97
2018-12-05T16:52:12.843Z,8.07
2018-12-05T16:54:41.678Z,7.67
2018-12-05T16:57:10.112Z,6.33
2018-12-05T16:59:38.657Z,6.30
2018-12-05T17:02:07.056Z,8.10
2018-12-05T17:04:35.481Z,9.40
2018-12-05T17:07:03.918Z,7.33
2018-12-05T17:09:32.296Z,8.27
2018-12-05T17:12:00.801Z,8.20
2018-12-05T17:14:29.485Z,5.57
2018-12-05T17:16:57.965Z,6.27
2018-12-05T17:19:26.353Z,8.33
2018-12-05T17:21:54.763Z,9.17
2018-12-05T17:24:23.226Z,9.43
2018-12-05T17:26:51.607Z,5.63
2018-12-05T17:29:20.697Z,6.93
2018-12-05T17:31:49.143Z,5.60
2018-12-05T17:34:17.622Z,6.27
2018-12-05T17:36:46.383Z,6.03
2018-12-05T17:39:14.765Z,7.90
2018-12-05T17:41:43.215Z,6.40
2018-12-05T17:44:11.759Z,9.07
2018-12-05T17:46:40.287Z,7.73
2018-12-05T17:49:08.748Z,7.27
2018-12-05T17:51:37.191Z,8.33
2018-12-05T17:54:06.286Z,29.13
2018-12-05T17:56:35.104Z,7.63
2018-12-05T17:59:03.765Z,7.97
2018-12-05T18:01:32.216Z,6.57
2018-12-05T18:04:00.678Z,7.07
2018-12-05T18:06:29.801Z,13.07
2018-12-05T18:08:58.262Z,6.50
2018-12-05T18:11:26.884Z,5.10
2018-12-05T18:13:55.319Z,7.77
2018-12-05T18:16:23.719Z,7.07
2018-12-05T18:18:52.595Z,9.67
2018-12-05T18:23:54.226Z,9.60
2018-12-05T18:26:22.796Z,7.50
2018-12-05T18:28:51.236Z,9.57
2018-12-05T18:31:19.696Z,14.87
2018-12-05T18:33:48.108Z,4.27
2018-12-05T18:36:17.646Z,5.37
2018-12-05T18:38:46.048Z,8.97
2018-12-05T18:41:14.473Z,7.60
2018-12-05T18:43:42.890Z,4.90
2018-12-05T18:46:11.333Z,6.43
2018-12-05T18:48:39.738Z,8.40
2018-12-05T18:51:08.271Z,11.00
2018-12-05T18:53:36.819Z,9.87
2018-12-05T18:56:05.298Z,6.30
2018-12-05T18:58:33.805Z,7.67
2018-12-05T19:01:02.339Z,5.93
2018-12-05T19:03:30.781Z,7.03
2018-12-05T19:05:59.233Z,4.83
2018-12-05T19:08:34.180Z,8.57
2018-12-05T19:10:58.267Z,6.93
2018-12-05T19:13:26.680Z,5.90
2018-12-05T19:15:55.179Z,6.83
2018-12-05T19:18:23.683Z,5.27
2018-12-05T19:20:52.412Z,9.43
2018-12-05T19:23:20.836Z,7.60
2018-12-05T19:25:49.373Z,6.70
2018-12-05T19:28:17.919Z,6.77
2018-12-05T19:30:46.375Z,10.93
2018-12-05T19:33:14.859Z,7.63
2018-12-05T19:35:43.359Z,6.53
2018-12-05T19:38:12.044Z,5.73
2018-12-05T19:40:40.500Z,7.40
2018-12-05T19:43:08.955Z,7.27
2018-12-05T19:45:37.435Z,9.93
2018-12-05T19:48:05.870Z,5.63
2018-12-05T19:50:34.852Z,7.23
2018-12-05T19:53:03.681Z,7.60
2018-12-05T19:55:32.105Z,12.00
2018-12-05T19:58:00.589Z,8.30
2018-12-05T20:00:29.027Z,10.80
2018-12-05T20:02:57.489Z,7.57
2018-12-05T20:05:25.940Z,6.90
2018-12-05T20:07:54.416Z,7.10
2018-12-05T20:10:22.829Z,9.20
2018-12-05T20:12:51.412Z,7.50
2018-12-05T20:15:20.037Z,10.87
2018-12-05T20:17:48.826Z,7.43
2018-12-05T20:20:17.584Z,5.27
2018-12-05T20:22:46.120Z,7.93
2018-12-05T20:25:15.290Z,9.60
2018-12-05T20:27:46.897Z,10.10
2018-12-05T20:30:15.356Z,7.37
2018-12-05T20:32:43.779Z,7.70
2018-12-05T20:35:12.250Z,5.87
2018-12-05T20:37:40.672Z,9.30
2018-12-05T20:42:10.450Z,9.63
2018-12-05T20:44:38.877Z,11.27
2018-12-05T20:47:07.335Z,11.73
2018-12-05T20:49:35.843Z,11.43
2018-12-05T20:52:05.564Z,10.93
2018-12-05T20:54:34.006Z,10.53
2018-12-05T20:57:02.539Z,10.90
2018-12-05T20:59:30.999Z,10.23
2018-12-05T21:01:59.387Z,10.97
2018-12-05T21:04:27.903Z,10.10
2018-12-05T21:06:56.399Z,9.60
2018-12-05T21:09:24.833Z,8.87
2018-12-05T21:11:53.273Z,11.03
2018-12-05T21:14:21.835Z,10.47
2018-12-05T21:16:50.348Z,10.50
2018-12-05T21:19:18.749Z,11.47
2018-12-05T21:21:47.201Z,10.07
2018-12-05T21:24:17.680Z,8.83
2018-12-05T21:26:46.088Z,8.90
2018-12-05T21:29:14.695Z,9.57
2018-12-05T21:31:43.464Z,11.60
2018-12-05T21:34:12.024Z,8.07
2018-12-05T21:36:40.416Z,8.50
2018-12-05T21:39:15.359Z,10.73
2018-12-05T21:41:43.831Z,11.10
2018-12-05T21:44:13.961Z,10.60
2018-12-05T21:46:42.563Z,9.77
2018-12-05T21:49:20.942Z,12.97
2018-12-05T21:51:51.338Z,9.03
2018-12-05T21:54:19.771Z,12.07
2018-12-05T21:56:49.767Z,10.87
2018-12-05T21:59:18.235Z,14.57
2018-12-05T22:01:46.754Z,11.23
2018-12-05T22:04:15.930Z,11.00
2018-12-05T22:06:46.780Z,10.93
2018-12-05T22:09:15.537Z,10.73
2018-12-05T22:11:45.057Z,13.43
2018-12-05T22:14:13.582Z,11.47
2018-12-05T22:16:42.287Z,8.80
2018-12-05T22:19:10.715Z,10.30
2018-12-05T22:21:39.129Z,8.40
2018-12-05T22:24:07.621Z,9.03
2018-12-05T22:26:36.043Z,9.70
2018-12-05T22:29:04.547Z,9.73
2018-12-05T22:31:32.955Z,9.87
2018-12-05T22:34:01.376Z,11.83
2018-12-05T22:36:30.197Z,10.03
2018-12-05T22:38:58.686Z,10.77
2018-12-05T22:41:27.121Z,9.20
2018-12-05T22:43:55.507Z,10.37
2018-12-05T22:46:23.922Z,12.83
2018-12-05T22:48:52.324Z,10.00
2018-12-05T22:51:20.732Z,14.43
2018-12-05T22:53:49.131Z,9.37
2018-12-05T22:56:17.515Z,11.57
2018-12-05T22:58:45.960Z,12.47
2018-12-05T23:01:14.735Z,9.00
2018-12-05T23:03:43.146Z,10.43
2018-12-05T23:06:11.561Z,12.83
2018-12-05T23:08:39.990Z,12.53
2018-12-05T23:11:08.428Z,12.93
2018-12-05T23:13:37.564Z,10.00
2018-12-05T23:16:06.175Z,15.90
2018-12-05T23:18:34.587Z,15.43
2018-12-05T23:21:03.098Z,12.20
2018-12-05T23:23:31.524Z,11.57
2018-12-05T23:25:59.926Z,12.57
2018-12-05T23:28:28.329Z,13.20
2018-12-05T23:30:56.784Z,9.17
2018-12-05T23:33:25.202Z,10.87
2018-12-05T23:35:53.700Z,11.97
2018-12-05T23:38:22.111Z,9.73
2018-12-05T23:40:50.474Z,12.07
2018-12-05T23:43:18.880Z,12.13
2018-12-05T23:45:47.260Z,10.70
2018-12-05T23:48:15.691Z,13.13
2018-12-05T23:50:44.066Z,11.03
2018-12-05T23:53:12.501Z,9.43
2018-12-05T23:55:40.882Z,13.83
2018-12-05T23:58:09.266Z,11.33
